sensor_id;sensor_type;location;lat;lon;timestamp;pressure;altitude;pressure_sealevel;temperature;humidity
51053;BME280;37093;37.716;-122.060;2024-03-06T00:01:54;99845.26;;;18.99;57.57
51053;BME280;37093;37.716;-122.060;2024-03-06T00:04:18;99849.52;;;16.62;66.69
51053;BME280;37093;37.716;-122.060;2024-03-06T00:06:47;99846.93;;;16.19;68.61
51053;BME280;37093;37.716;-122.060;2024-03-06T00:09:13;99850.13;;;13.56;80.15
51053;BME280;37093;37.716;-122.060;2024-03-06T00:11:35;99843.66;;;15.12;78.73
51053;BME280;37093;37.716;-122.060;2024-03-06T00:14:01;99842.31;;;16.66;68.56
51053;BME280;37093;37.716;-122.060;2024-03-06T00:16:25;99836.12;;;15.66;71.83
51053;BME280;37093;37.716;-122.060;2024-03-06T00:18:51;99835.54;;;17.13;69.14
51053;BME280;37093;37.716;-122.060;2024-03-06T00:21:17;99833.03;;;18.42;60.92
51053;BME280;37093;37.716;-122.060;2024-03-06T00:23:40;99841.81;;;16.68;63.34
51053;BME280;37093;37.716;-122.060;2024-03-06T00:26:10;99831.74;;;18.55;59.85
51053;BME280;37093;37.716;-122.060;2024-03-06T00:28:32;99829.25;;;18.31;59.41
51053;BME280;37093;37.716;-122.060;2024-03-06T00:30:59;99835.85;;;16.32;66.32
51053;BME280;37093;37.716;-122.060;2024-03-06T00:33:21;99824.93;;;19.60;57.86
51053;BME280;37093;37.716;-122.060;2024-03-06T00:35:47;99823.90;;;20.08;54.88
51053;BME280;37093;37.716;-122.060;2024-03-06T00:38:12;99820.24;;;19.87;55.38
51053;BME280;37093;37.716;-122.060;2024-03-06T00:40:36;99821.47;;;19.46;55.33
51053;BME280;37093;37.716;-122.060;2024-03-06T00:43:03;99820.41;;;18.42;60.22
51053;BME280;37093;37.716;-122.060;2024-03-06T00:45:28;99817.48;;;19.60;56.19
51053;BME280;37093;37.716;-122.060;2024-03-06T00:47:53;99814.78;;;20.48;54.59
51053;BME280;37093;37.716;-122.060;2024-03-06T00:50:18;99818.88;;;20.63;54.24
51053;BME280;37093;37.716;-122.060;2024-03-06T00:52:42;99815.18;;;20.01;58.25
51053;BME280;37093;37.716;-122.060;2024-03-06T00:55:08;99809.77;;;19.47;64.22
51053;BME280;37093;37.716;-122.060;2024-03-06T00:57:33;99814.77;;;19.19;64.69
51053;BME280;37093;37.716;-122.060;2024-03-06T01:00:04;99812.38;;;19.84;61.78
51053;BME280;37093;37.716;-122.060;2024-03-06T01:02:21;99811.21;;;19.69;63.02
51053;BME280;37093;37.716;-122.060;2024-03-06T01:04:46;99803.27;;;20.34;61.14
51053;BME280;37093;37.716;-122.060;2024-03-06T01:07:12;99810.37;;;20.51;61.38
51053;BME280;37093;37.716;-122.060;2024-03-06T01:09:38;99811.03;;;20.12;64.10
51053;BME280;37093;37.716;-122.060;2024-03-06T01:12:03;99809.37;;;20.73;62.37
51053;BME280;37093;37.716;-122.060;2024-03-06T01:14:29;99812.07;;;20.57;62.89
51053;BME280;37093;37.716;-122.060;2024-03-06T01:16:58;99808.64;;;20.30;64.59
51053;BME280;37093;37.716;-122.060;2024-03-06T01:19:19;99812.89;;;19.07;66.55
51053;BME280;37093;37.716;-122.060;2024-03-06T01:21:47;99808.49;;;19.66;66.85
51053;BME280;37093;37.716;-122.060;2024-03-06T01:24:09;99810.09;;;18.14;76.83
51053;BME280;37093;37.716;-122.060;2024-03-06T01:26:35;99808.70;;;19.60;69.64
51053;BME280;37093;37.716;-122.060;2024-03-06T01:29:05;99806.92;;;19.80;68.27
51053;BME280;37093;37.716;-122.060;2024-03-06T01:31:26;99808.76;;;18.51;72.53
51053;BME280;37093;37.716;-122.060;2024-03-06T01:33:55;99804.50;;;19.17;70.17
51053;BME280;37093;37.716;-122.060;2024-03-06T01:36:17;99805.65;;;19.87;65.65
51053;BME280;37093;37.716;-122.060;2024-03-06T01:38:42;99802.89;;;20.37;63.44
51053;BME280;37093;37.716;-122.060;2024-03-06T01:41:06;99803.78;;;20.49;61.87
51053;BME280;37093;37.716;-122.060;2024-03-06T01:43:39;99806.78;;;20.78;60.64
51053;BME280;37093;37.716;-122.060;2024-03-06T01:45:58;99810.60;;;20.82;60.72
51053;BME280;37093;37.716;-122.060;2024-03-06T01:48:24;99806.81;;;21.04;59.80
51053;BME280;37093;37.716;-122.060;2024-03-06T01:50:47;99803.83;;;21.25;59.51
51053;BME280;37093;37.716;-122.060;2024-03-06T01:53:12;99799.51;;;21.35;58.92
51053;BME280;37093;37.716;-122.060;2024-03-06T01:55:37;99795.98;;;21.28;58.59
51053;BME280;37093;37.716;-122.060;2024-03-06T01:58:02;99795.60;;;21.43;57.45
51053;BME280;37093;37.716;-122.060;2024-03-06T02:00:28;99791.36;;;20.75;58.03
51053;BME280;37093;37.716;-122.060;2024-03-06T02:02:53;99789.35;;;19.41;65.02
51053;BME280;37093;37.716;-122.060;2024-03-06T02:05:21;99784.42;;;19.92;61.55
51053;BME280;37093;37.716;-122.060;2024-03-06T02:07:45;99783.57;;;20.39;61.17
51053;BME280;37093;37.716;-122.060;2024-03-06T02:10:10;99784.46;;;20.51;61.22
51053;BME280;37093;37.716;-122.060;2024-03-06T02:12:33;99785.42;;;20.87;60.52
51053;BME280;37093;37.716;-122.060;2024-03-06T02:14:58;99785.59;;;20.99;59.50
51053;BME280;37093;37.716;-122.060;2024-03-06T02:17:35;99788.01;;;21.02;59.09
51053;BME280;37093;37.716;-122.060;2024-03-06T02:19:48;99789.43;;;21.32;58.27
51053;BME280;37093;37.716;-122.060;2024-03-06T02:22:18;99784.75;;;21.40;57.38
51053;BME280;37093;37.716;-122.060;2024-03-06T02:24:45;99784.92;;;21.33;56.93
51053;BME280;37093;37.716;-122.060;2024-03-06T02:27:05;99788.22;;;21.43;56.60
51053;BME280;37093;37.716;-122.060;2024-03-06T02:29:29;99789.81;;;21.28;56.08
51053;BME280;37093;37.716;-122.060;2024-03-06T02:31:55;99787.06;;;21.06;57.08
51053;BME280;37093;37.716;-122.060;2024-03-06T02:34:22;99785.28;;;21.26;58.20
51053;BME280;37093;37.716;-122.060;2024-03-06T02:36:44;99777.77;;;21.15;58.77
51053;BME280;37093;37.716;-122.060;2024-03-06T02:39:09;99781.16;;;18.46;63.28
51053;BME280;37093;37.716;-122.060;2024-03-06T02:41:35;99781.03;;;18.78;66.30
51053;BME280;37093;37.716;-122.060;2024-03-06T02:44:02;99785.36;;;17.76;71.87
51053;BME280;37093;37.716;-122.060;2024-03-06T02:46:26;99787.00;;;18.19;70.40
51053;BME280;37093;37.716;-122.060;2024-03-06T02:48:51;99799.34;;;15.10;88.29
51053;BME280;37093;37.716;-122.060;2024-03-06T02:51:20;99794.75;;;17.98;77.52
51053;BME280;37093;37.716;-122.060;2024-03-06T02:53:41;99799.99;;;16.43;80.06
51053;BME280;37093;37.716;-122.060;2024-03-06T02:56:07;99795.52;;;16.92;81.04
51053;BME280;37093;37.716;-122.060;2024-03-06T02:58:31;99793.98;;;18.52;73.92
51053;BME280;37093;37.716;-122.060;2024-03-06T03:01:02;99794.43;;;17.91;77.03
51053;BME280;37093;37.716;-122.060;2024-03-06T03:03:21;99793.78;;;17.27;77.39
51053;BME280;37093;37.716;-122.060;2024-03-06T03:05:47;99788.78;;;19.28;70.12
51053;BME280;37093;37.716;-122.060;2024-03-06T03:08:11;99785.81;;;19.48;68.37
51053;BME280;37093;37.716;-122.060;2024-03-06T03:10:42;99784.72;;;19.88;66.58
51053;BME280;37093;37.716;-122.060;2024-03-06T03:13:04;99786.41;;;20.19;65.16
51053;BME280;37093;37.716;-122.060;2024-03-06T03:15:27;99786.00;;;20.20;64.43
51053;BME280;37093;37.716;-122.060;2024-03-06T03:17:54;99787.93;;;20.39;63.74
51053;BME280;37093;37.716;-122.060;2024-03-06T03:20:17;99790.90;;;20.60;62.02
51053;BME280;37093;37.716;-122.060;2024-03-06T03:22:43;99791.47;;;20.60;62.18
51053;BME280;37093;37.716;-122.060;2024-03-06T03:25:11;99789.43;;;20.78;61.09
51053;BME280;37093;37.716;-122.060;2024-03-06T03:27:33;99789.91;;;20.74;60.83
51053;BME280;37093;37.716;-122.060;2024-03-06T03:29:58;99788.71;;;20.47;60.38
51053;BME280;37093;37.716;-122.060;2024-03-06T03:32:23;99787.89;;;19.57;65.44
51053;BME280;37093;37.716;-122.060;2024-03-06T03:34:48;99784.41;;;19.96;64.51
51053;BME280;37093;37.716;-122.060;2024-03-06T03:37:16;99781.69;;;20.11;63.35
51053;BME280;37093;37.716;-122.060;2024-03-06T03:39:48;99783.91;;;20.36;62.33
51053;BME280;37093;37.716;-122.060;2024-03-06T03:42:09;99784.70;;;20.46;61.49
51053;BME280;37093;37.716;-122.060;2024-03-06T03:44:28;99785.15;;;20.44;60.87
51053;BME280;37093;37.716;-122.060;2024-03-06T03:46:56;99786.50;;;20.53;60.24
51053;BME280;37093;37.716;-122.060;2024-03-06T03:49:41;99781.60;;;20.37;58.77
51053;BME280;37093;37.716;-122.060;2024-03-06T03:51:46;99780.99;;;20.46;59.19
51053;BME280;37093;37.716;-122.060;2024-03-06T03:54:09;99777.26;;;20.55;59.16
51053;BME280;37093;37.716;-122.060;2024-03-06T03:56:34;99774.19;;;20.56;58.40
51053;BME280;37093;37.716;-122.060;2024-03-06T03:58:59;99773.50;;;20.70;58.08
51053;BME280;37093;37.716;-122.060;2024-03-06T04:01:28;99768.58;;;20.71;57.61
51053;BME280;37093;37.716;-122.060;2024-03-06T04:03:50;99765.50;;;20.73;58.02
51053;BME280;37093;37.716;-122.060;2024-03-06T04:06:22;99768.35;;;20.98;57.62
51053;BME280;37093;37.716;-122.060;2024-03-06T04:08:40;99765.88;;;20.97;57.43
51053;BME280;37093;37.716;-122.060;2024-03-06T04:11:16;99763.66;;;20.94;57.38
51053;BME280;37093;37.716;-122.060;2024-03-06T04:13:37;99760.54;;;20.86;57.17
51053;BME280;37093;37.716;-122.060;2024-03-06T04:16:04;99755.85;;;20.79;56.74
51053;BME280;37093;37.716;-122.060;2024-03-06T04:18:25;99757.97;;;20.93;56.98
51053;BME280;37093;37.716;-122.060;2024-03-06T04:20:48;99751.21;;;21.02;56.18
51053;BME280;37093;37.716;-122.060;2024-03-06T04:23:15;99751.78;;;20.86;56.39
51053;BME280;37093;37.716;-122.060;2024-03-06T04:25:37;99754.86;;;20.40;56.47
51053;BME280;37093;37.716;-122.060;2024-03-06T04:28:05;99758.92;;;20.45;55.86
51053;BME280;37093;37.716;-122.060;2024-03-06T04:30:27;99758.35;;;20.49;56.01
51053;BME280;37093;37.716;-122.060;2024-03-06T04:32:59;99758.18;;;20.53;55.69
51053;BME280;37093;37.716;-122.060;2024-03-06T04:35:18;99753.91;;;20.02;55.05
51053;BME280;37093;37.716;-122.060;2024-03-06T04:37:44;99757.19;;;19.76;56.87
51053;BME280;37093;37.716;-122.060;2024-03-06T04:40:11;99751.22;;;20.01;57.82
51053;BME280;37093;37.716;-122.060;2024-03-06T04:42:37;99751.62;;;19.91;58.07
51053;BME280;37093;37.716;-122.060;2024-03-06T04:45:02;99751.94;;;20.14;58.09
51053;BME280;37093;37.716;-122.060;2024-03-06T04:47:26;99746.81;;;20.12;56.35
51053;BME280;37093;37.716;-122.060;2024-03-06T04:49:51;99750.41;;;20.20;56.95
51053;BME280;37093;37.716;-122.060;2024-03-06T04:52:13;99750.44;;;20.04;56.47
51053;BME280;37093;37.716;-122.060;2024-03-06T04:54:40;99747.55;;;20.23;56.10
51053;BME280;37093;37.716;-122.060;2024-03-06T04:57:05;99747.53;;;20.23;55.58
51053;BME280;37093;37.716;-122.060;2024-03-06T04:59:30;99749.00;;;20.15;54.91
51053;BME280;37093;37.716;-122.060;2024-03-06T05:01:57;99749.28;;;20.26;54.66
51053;BME280;37093;37.716;-122.060;2024-03-06T05:04:21;99749.77;;;20.46;55.14
51053;BME280;37093;37.716;-122.060;2024-03-06T05:06:45;99750.21;;;20.33;54.83
51053;BME280;37093;37.716;-122.060;2024-03-06T05:09:10;99748.20;;;20.41;54.14
51053;BME280;37093;37.716;-122.060;2024-03-06T05:11:34;99747.92;;;20.39;54.26
51053;BME280;37093;37.716;-122.060;2024-03-06T05:14:00;99745.52;;;20.27;54.69
51053;BME280;37093;37.716;-122.060;2024-03-06T05:16:28;99745.93;;;20.38;54.88
51053;BME280;37093;37.716;-122.060;2024-03-06T05:18:49;99740.38;;;20.13;54.80
51053;BME280;37093;37.716;-122.060;2024-03-06T05:21:15;99744.00;;;20.44;54.76
51053;BME280;37093;37.716;-122.060;2024-03-06T05:23:43;99742.23;;;19.96;56.05
51053;BME280;37093;37.716;-122.060;2024-03-06T05:26:05;99743.58;;;20.10;56.45
51053;BME280;37093;37.716;-122.060;2024-03-06T05:28:29;99740.48;;;20.02;56.63
51053;BME280;37093;37.716;-122.060;2024-03-06T05:30:58;99745.22;;;18.90;59.29
51053;BME280;37093;37.716;-122.060;2024-03-06T05:33:23;99742.00;;;19.84;57.22
51053;BME280;37093;37.716;-122.060;2024-03-06T05:35:48;99742.18;;;20.05;56.39
51053;BME280;37093;37.716;-122.060;2024-03-06T05:38:11;99743.29;;;20.10;55.81
51053;BME280;37093;37.716;-122.060;2024-03-06T05:40:36;99749.23;;;20.27;55.18
51053;BME280;37093;37.716;-122.060;2024-03-06T05:43:01;99746.97;;;20.38;54.76
51053;BME280;37093;37.716;-122.060;2024-03-06T05:45:25;99742.19;;;20.31;53.58
51053;BME280;37093;37.716;-122.060;2024-03-06T05:47:55;99741.57;;;20.59;53.51
51053;BME280;37093;37.716;-122.060;2024-03-06T05:50:18;99743.45;;;20.58;54.18
51053;BME280;37093;37.716;-122.060;2024-03-06T05:52:42;99744.06;;;20.65;53.79
51053;BME280;37093;37.716;-122.060;2024-03-06T05:55:07;99742.19;;;20.37;54.35
51053;BME280;37093;37.716;-122.060;2024-03-06T05:57:32;99741.17;;;20.57;53.16
51053;BME280;37093;37.716;-122.060;2024-03-06T05:59:57;99740.90;;;20.67;53.80
51053;BME280;37093;37.716;-122.060;2024-03-06T06:02:26;99737.19;;;20.65;53.54
51053;BME280;37093;37.716;-122.060;2024-03-06T06:04:47;99738.20;;;20.69;53.61
51053;BME280;37093;37.716;-122.060;2024-03-06T06:07:12;99738.73;;;20.88;53.25
51053;BME280;37093;37.716;-122.060;2024-03-06T06:09:37;99737.70;;;20.86;52.89
51053;BME280;37093;37.716;-122.060;2024-03-06T06:12:02;99735.55;;;20.80;53.28
51053;BME280;37093;37.716;-122.060;2024-03-06T06:14:29;99732.77;;;20.72;53.47
51053;BME280;37093;37.716;-122.060;2024-03-06T06:16:54;99730.42;;;20.69;53.02
51053;BME280;37093;37.716;-122.060;2024-03-06T06:19:18;99729.37;;;20.90;52.80
51053;BME280;37093;37.716;-122.060;2024-03-06T06:21:43;99726.76;;;20.68;52.58
51053;BME280;37093;37.716;-122.060;2024-03-06T06:24:08;99723.79;;;20.61;52.54
51053;BME280;37093;37.716;-122.060;2024-03-06T06:26:33;99722.83;;;20.59;52.61
51053;BME280;37093;37.716;-122.060;2024-03-06T06:28:59;99721.02;;;20.60;52.58
51053;BME280;37093;37.716;-122.060;2024-03-06T06:31:24;99724.39;;;20.67;52.30
51053;BME280;37093;37.716;-122.060;2024-03-06T06:33:51;99722.51;;;20.71;51.54
51053;BME280;37093;37.716;-122.060;2024-03-06T06:36:13;99720.39;;;20.60;51.56
51053;BME280;37093;37.716;-122.060;2024-03-06T06:38:39;99716.79;;;20.58;52.11
51053;BME280;37093;37.716;-122.060;2024-03-06T06:41:04;99719.67;;;20.37;51.88
51053;BME280;37093;37.716;-122.060;2024-03-06T06:43:29;99723.28;;;20.36;52.07
51053;BME280;37093;37.716;-122.060;2024-03-06T06:45:56;99727.20;;;20.27;53.05
51053;BME280;37093;37.716;-122.060;2024-03-06T06:48:19;99730.47;;;20.32;52.97
51053;BME280;37093;37.716;-122.060;2024-03-06T06:50:47;99731.80;;;20.25;52.99
51053;BME280;37093;37.716;-122.060;2024-03-06T06:53:09;99730.40;;;20.35;52.58
51053;BME280;37093;37.716;-122.060;2024-03-06T06:55:34;99730.82;;;20.45;52.61
51053;BME280;37093;37.716;-122.060;2024-03-06T06:57:59;99729.02;;;20.32;52.54
51053;BME280;37093;37.716;-122.060;2024-03-06T07:00:27;99732.33;;;20.30;51.89
51053;BME280;37093;37.716;-122.060;2024-03-06T07:02:53;99733.46;;;20.33;52.23
51053;BME280;37093;37.716;-122.060;2024-03-06T07:05:14;99733.73;;;20.25;52.42
51053;BME280;37093;37.716;-122.060;2024-03-06T07:07:40;99734.94;;;20.16;52.36
51053;BME280;37093;37.716;-122.060;2024-03-06T07:10:05;99733.12;;;20.25;52.42
51053;BME280;37093;37.716;-122.060;2024-03-06T07:12:29;99731.70;;;20.03;52.58
51053;BME280;37093;37.716;-122.060;2024-03-06T07:14:55;99731.29;;;20.08;52.77
51053;BME280;37093;37.716;-122.060;2024-03-06T07:17:20;99733.02;;;19.96;52.70
51053;BME280;37093;37.716;-122.060;2024-03-06T07:19:44;99734.71;;;19.99;52.81
51053;BME280;37093;37.716;-122.060;2024-03-06T07:22:10;99732.81;;;19.24;53.04
51053;BME280;37093;37.716;-122.060;2024-03-06T07:24:34;99737.79;;;19.63;53.61
51053;BME280;37093;37.716;-122.060;2024-03-06T07:27:02;99738.45;;;19.40;53.29
51053;BME280;37093;37.716;-122.060;2024-03-06T07:29:27;99738.41;;;19.56;53.59
51053;BME280;37093;37.716;-122.060;2024-03-06T07:31:50;99735.85;;;19.63;53.59
51053;BME280;37093;37.716;-122.060;2024-03-06T07:34:45;99739.29;;;19.68;52.63
51053;BME280;37093;37.716;-122.060;2024-03-06T07:37:07;99735.33;;;19.84;52.65
51053;BME280;37093;37.716;-122.060;2024-03-06T07:39:31;99737.36;;;20.05;51.35
51053;BME280;37093;37.716;-122.060;2024-03-06T07:41:58;99732.25;;;19.85;52.20
51053;BME280;37093;37.716;-122.060;2024-03-06T07:44:22;99731.47;;;20.02;52.15
51053;BME280;37093;37.716;-122.060;2024-03-06T07:46:57;99731.10;;;20.02;51.93
51053;BME280;37093;37.716;-122.060;2024-03-06T07:49:15;99731.77;;;19.73;52.12
51053;BME280;37093;37.716;-122.060;2024-03-06T07:51:36;99729.77;;;19.84;52.06
51053;BME280;37093;37.716;-122.060;2024-03-06T07:54:02;99732.40;;;19.64;52.29
51053;BME280;37093;37.716;-122.060;2024-03-06T07:56:26;99727.71;;;19.58;52.62
51053;BME280;37093;37.716;-122.060;2024-03-06T07:58:53;99727.01;;;19.56;52.93
51053;BME280;37093;37.716;-122.060;2024-03-06T08:01:17;99724.91;;;19.50;52.74
51053;BME280;37093;37.716;-122.060;2024-03-06T08:03:43;99722.69;;;19.54;52.29
51053;BME280;37093;37.716;-122.060;2024-03-06T08:06:08;99722.96;;;19.35;52.35
51053;BME280;37093;37.716;-122.060;2024-03-06T08:08:32;99723.10;;;19.24;52.37
51053;BME280;37093;37.716;-122.060;2024-03-06T08:10:57;99725.34;;;19.40;52.55
51053;BME280;37093;37.716;-122.060;2024-03-06T08:13:22;99726.61;;;19.52;52.38
51053;BME280;37093;37.716;-122.060;2024-03-06T08:15:46;99727.71;;;19.31;52.47
51053;BME280;37093;37.716;-122.060;2024-03-06T08:18:12;99730.66;;;19.50;52.92
51053;BME280;37093;37.716;-122.060;2024-03-06T08:20:38;99729.66;;;19.64;52.70
51053;BME280;37093;37.716;-122.060;2024-03-06T08:23:02;99730.26;;;19.60;53.05
51053;BME280;37093;37.716;-122.060;2024-03-06T08:25:28;99730.14;;;19.70;52.47
51053;BME280;37093;37.716;-122.060;2024-03-06T08:27:56;99728.85;;;19.83;52.46
51053;BME280;37093;37.716;-122.060;2024-03-06T08:30:18;99724.31;;;19.76;52.16
51053;BME280;37093;37.716;-122.060;2024-03-06T08:32:45;99726.29;;;19.75;52.56
51053;BME280;37093;37.716;-122.060;2024-03-06T08:35:08;99725.33;;;19.86;52.68
51053;BME280;37093;37.716;-122.060;2024-03-06T08:37:34;99723.08;;;20.01;52.30
51053;BME280;37093;37.716;-122.060;2024-03-06T08:39:58;99722.75;;;20.13;52.18
51053;BME280;37093;37.716;-122.060;2024-03-06T08:42:23;99724.20;;;19.97;52.41
51053;BME280;37093;37.716;-122.060;2024-03-06T08:44:48;99722.55;;;19.85;52.32
51053;BME280;37093;37.716;-122.060;2024-03-06T08:47:13;99722.28;;;20.11;52.11
51053;BME280;37093;37.716;-122.060;2024-03-06T08:49:39;99715.79;;;19.94;52.08
51053;BME280;37093;37.716;-122.060;2024-03-06T08:52:03;99715.45;;;19.97;52.17
51053;BME280;37093;37.716;-122.060;2024-03-06T08:54:29;99711.45;;;19.95;52.33
51053;BME280;37093;37.716;-122.060;2024-03-06T08:56:57;99712.82;;;17.68;58.15
51053;BME280;37093;37.716;-122.060;2024-03-06T08:59:18;99708.94;;;18.53;57.84
51053;BME280;37093;37.716;-122.060;2024-03-06T09:01:45;99703.92;;;19.13;55.40
51053;BME280;37093;37.716;-122.060;2024-03-06T09:04:08;99702.76;;;19.50;54.23
51053;BME280;37093;37.716;-122.060;2024-03-06T09:06:33;99697.71;;;19.42;54.17
51053;BME280;37093;37.716;-122.060;2024-03-06T09:08:58;99700.32;;;19.48;53.62
51053;BME280;37093;37.716;-122.060;2024-03-06T09:11:23;99695.46;;;19.58;53.87
51053;BME280;37093;37.716;-122.060;2024-03-06T09:13:56;99693.85;;;19.56;53.60
51053;BME280;37093;37.716;-122.060;2024-03-06T09:16:14;99690.17;;;19.59;53.43
51053;BME280;37093;37.716;-122.060;2024-03-06T09:18:42;99690.59;;;19.67;53.30
51053;BME280;37093;37.716;-122.060;2024-03-06T09:21:07;99686.71;;;19.72;52.89
51053;BME280;37093;37.716;-122.060;2024-03-06T09:23:30;99686.54;;;19.74;52.64
51053;BME280;37093;37.716;-122.060;2024-03-06T09:25:56;99688.04;;;19.88;52.03
51053;BME280;37093;37.716;-122.060;2024-03-06T09:28:22;99684.34;;;19.84;52.26
51053;BME280;37093;37.716;-122.060;2024-03-06T09:30:44;99681.02;;;20.03;52.18
51053;BME280;37093;37.716;-122.060;2024-03-06T09:33:09;99678.67;;;19.99;52.14
51053;BME280;37093;37.716;-122.060;2024-03-06T09:35:35;99675.06;;;19.97;52.26
51053;BME280;37093;37.716;-122.060;2024-03-06T09:38:00;99669.07;;;20.01;52.34
51053;BME280;37093;37.716;-122.060;2024-03-06T09:40:26;99667.49;;;19.92;52.15
51053;BME280;37093;37.716;-122.060;2024-03-06T09:42:49;99664.36;;;19.95;52.06
51053;BME280;37093;37.716;-122.060;2024-03-06T09:45:14;99662.59;;;19.90;52.28
51053;BME280;37093;37.716;-122.060;2024-03-06T09:47:40;99664.12;;;19.91;52.37
51053;BME280;37093;37.716;-122.060;2024-03-06T09:50:06;99659.70;;;19.92;52.36
51053;BME280;37093;37.716;-122.060;2024-03-06T09:52:30;99656.01;;;19.94;52.42
51053;BME280;37093;37.716;-122.060;2024-03-06T09:55:01;99654.08;;;19.99;52.33
51053;BME280;37093;37.716;-122.060;2024-03-06T09:57:20;99650.24;;;19.88;52.33
51053;BME280;37093;37.716;-122.060;2024-03-06T09:59:44;99649.96;;;19.72;52.09
51053;BME280;37093;37.716;-122.060;2024-03-06T10:02:28;99648.22;;;19.14;53.82
51053;BME280;37093;37.716;-122.060;2024-03-06T10:04:37;99645.96;;;19.25;53.87
51053;BME280;37093;37.716;-122.060;2024-03-06T10:07:03;99633.23;;;19.30;53.69
51053;BME280;37093;37.716;-122.060;2024-03-06T10:09:26;99630.25;;;19.47;53.55
51053;BME280;37093;37.716;-122.060;2024-03-06T10:11:52;99628.44;;;19.53;53.39
51053;BME280;37093;37.716;-122.060;2024-03-06T10:14:15;99625.85;;;19.68;53.35
51053;BME280;37093;37.716;-122.060;2024-03-06T10:17:03;99623.30;;;19.73;53.03
51053;BME280;37093;37.716;-122.060;2024-03-06T10:19:19;99620.48;;;19.80;52.51
51053;BME280;37093;37.716;-122.060;2024-03-06T10:21:34;99616.21;;;19.87;52.13
51053;BME280;37093;37.716;-122.060;2024-03-06T10:23:59;99614.58;;;19.95;52.07
51053;BME280;37093;37.716;-122.060;2024-03-06T10:26:21;99614.41;;;19.95;52.11
51053;BME280;37093;37.716;-122.060;2024-03-06T10:28:47;99612.81;;;19.76;52.37
51053;BME280;37093;37.716;-122.060;2024-03-06T10:31:12;99611.33;;;19.70;52.49
51053;BME280;37093;37.716;-122.060;2024-03-06T10:33:37;99604.59;;;19.75;52.93
51053;BME280;37093;37.716;-122.060;2024-03-06T10:36:01;99599.97;;;19.78;52.90
51053;BME280;37093;37.716;-122.060;2024-03-06T10:38:29;99595.58;;;19.65;52.97
51053;BME280;37093;37.716;-122.060;2024-03-06T10:40:53;99589.80;;;19.87;52.96
51053;BME280;37093;37.716;-122.060;2024-03-06T10:43:16;99585.59;;;19.89;52.74
51053;BME280;37093;37.716;-122.060;2024-03-06T10:45:47;99583.31;;;19.99;52.83
51053;BME280;37093;37.716;-122.060;2024-03-06T10:48:07;99581.55;;;19.85;52.68
51053;BME280;37093;37.716;-122.060;2024-03-06T10:50:32;99578.91;;;19.90;52.43
51053;BME280;37093;37.716;-122.060;2024-03-06T10:52:58;99578.36;;;20.10;52.33
51053;BME280;37093;37.716;-122.060;2024-03-06T10:55:23;99576.40;;;20.07;52.00
51053;BME280;37093;37.716;-122.060;2024-03-06T10:57:48;99574.54;;;20.19;51.72
51053;BME280;37093;37.716;-122.060;2024-03-06T11:00:13;99573.54;;;20.11;51.58
51053;BME280;37093;37.716;-122.060;2024-03-06T11:02:37;99572.46;;;20.09;51.83
51053;BME280;37093;37.716;-122.060;2024-03-06T11:05:03;99570.72;;;20.08;52.09
51053;BME280;37093;37.716;-122.060;2024-03-06T11:07:27;99568.24;;;20.06;51.89
51053;BME280;37093;37.716;-122.060;2024-03-06T11:09:58;99564.73;;;20.08;51.87
51053;BME280;37093;37.716;-122.060;2024-03-06T11:12:40;99564.49;;;20.17;51.89
51053;BME280;37093;37.716;-122.060;2024-03-06T11:14:43;99561.49;;;20.23;51.79
51053;BME280;37093;37.716;-122.060;2024-03-06T11:17:08;99558.49;;;20.20;51.42
51053;BME280;37093;37.716;-122.060;2024-03-06T11:19:32;99553.42;;;20.25;51.37
51053;BME280;37093;37.716;-122.060;2024-03-06T11:21:57;99550.82;;;20.40;51.19
51053;BME280;37093;37.716;-122.060;2024-03-06T11:24:35;99545.84;;;20.34;51.59
51053;BME280;37093;37.716;-122.060;2024-03-06T11:26:49;99544.91;;;20.41;51.38
51053;BME280;37093;37.716;-122.060;2024-03-06T11:29:13;99540.88;;;20.15;51.27
51053;BME280;37093;37.716;-122.060;2024-03-06T11:31:37;99541.01;;;20.33;51.15
51053;BME280;37093;37.716;-122.060;2024-03-06T11:34:05;99538.44;;;20.23;50.98
51053;BME280;37093;37.716;-122.060;2024-03-06T11:36:29;99537.62;;;20.34;50.54
51053;BME280;37093;37.716;-122.060;2024-03-06T11:39:03;99537.88;;;20.27;50.64
51053;BME280;37093;37.716;-122.060;2024-03-06T11:41:20;99534.27;;;20.32;50.95
51053;BME280;37093;37.716;-122.060;2024-03-06T11:43:44;99532.00;;;20.32;50.84
51053;BME280;37093;37.716;-122.060;2024-03-06T11:46:11;99524.34;;;20.43;50.59
51053;BME280;37093;37.716;-122.060;2024-03-06T11:48:33;99519.90;;;20.47;50.75
51053;BME280;37093;37.716;-122.060;2024-03-06T11:50:58;99516.41;;;20.25;50.24
51053;BME280;37093;37.716;-122.060;2024-03-06T11:53:23;99516.82;;;20.26;50.24
51053;BME280;37093;37.716;-122.060;2024-03-06T11:55:53;99514.64;;;20.36;50.20
51053;BME280;37093;37.716;-122.060;2024-03-06T11:58:12;99516.88;;;20.32;50.40
51053;BME280;37093;37.716;-122.060;2024-03-06T12:00:45;99511.59;;;20.43;50.37
51053;BME280;37093;37.716;-122.060;2024-03-06T12:03:03;99506.78;;;20.31;50.64
51053;BME280;37093;37.716;-122.060;2024-03-06T12:05:30;99508.99;;;20.12;50.99
51053;BME280;37093;37.716;-122.060;2024-03-06T12:08:03;99510.00;;;20.11;50.99
51053;BME280;37093;37.716;-122.060;2024-03-06T12:10:21;99504.21;;;20.04;51.09
51053;BME280;37093;37.716;-122.060;2024-03-06T12:12:44;99506.45;;;20.19;50.87
51053;BME280;37093;37.716;-122.060;2024-03-06T12:15:11;99505.16;;;20.11;51.09
51053;BME280;37093;37.716;-122.060;2024-03-06T12:17:47;99499.04;;;20.06;51.40
51053;BME280;37093;37.716;-122.060;2024-03-06T12:19:58;99500.47;;;19.81;51.62